Startpagina
METAR-TAF:

METAR-TAF

Vliegvelden :

Bermuda, Bermuda

L.F. Wade International Airport

breedte: 32-22N, lengte: 064-41W, hoogte: 6 m

Actueel weer

Dit bericht is 50 minuten geleden gemaakt, om 07:55 UTC
Wind 14 kt uit het zuidzuidwesten
Temperatuur 23°C
Vochtigheid 89%
Druk 1019 hPa
Zicht 10 km of meer
Gebroken wolken op 1100 ft

METAR: TXKF 250755Z 21014KT 9999 BKN011 23/21 Q1019

Tijdstip: 05:45 (08:45 UTC)

Verwachting

Dit bericht is 3 uur en het 12 minuten geleden gemaakt, om 05:33 UTC
Verwachting geldig van 25 om 06 UTC tot 26 om 06 UTC
Wind 16 kt uit het zuidzuidwesten
Zicht 10 km of meer
Weinig wolken op 1200 ft
Gebroken wolken op 30000 ft
Kans 30% :
Tijdelijke
van 25 om 06 UTC tot 25 om 12 UTC
Gebroken wolken op 1000 ft

TAF: TXKF 250533Z 2506/2606 20016KT 9999 FEW012 BKN300 PROB30 TEMPO 2506/2512 BKN010

Waarnemingen en weersverwachtingen van meer dan 4000 vliegvelden (METAR en TAF).

De beschikbare stations zijn de gele en rode punten op de kaart.

Ga met uw muis naar het station om de naam te zien.

Klik dan om waarnemingen en weersverwachtingen te zien.

kaart wijzigen: klik op de groene knoppen met een zwart kruis om in te zoomen, op de groene knop met een streepje om uit te zoomen of op de groene pijlen voor aangrenzende kaarten.


METAR-TAF: